sensor_id;sensor_type;location;lat;lon;timestamp;P1;durP1;ratioP1;P2;durP2;ratioP2
76296;SDS011;65104;52.994;6.552;2022-12-15T00:00:58;16.65;;;8.50;;
76296;SDS011;65104;52.994;6.552;2022-12-15T00:03:42;17.38;;;8.73;;
76296;SDS011;65104;52.994;6.552;2022-12-15T00:06:26;19.92;;;7.97;;
76296;SDS011;65104;52.994;6.552;2022-12-15T00:09:10;16.80;;;8.90;;
76296;SDS011;65104;52.994;6.552;2022-12-15T00:11:54;13.65;;;7.60;;
76296;SDS011;65104;52.994;6.552;2022-12-15T00:14:38;16.85;;;7.95;;
76296;SDS011;65104;52.994;6.552;2022-12-15T00:17:22;14.95;;;8.25;;
76296;SDS011;65104;52.994;6.552;2022-12-15T00:20:07;17.58;;;7.82;;
76296;SDS011;65104;52.994;6.552;2022-12-15T00:22:51;19.02;;;9.90;;
76296;SDS011;65104;52.994;6.552;2022-12-15T00:25:35;20.33;;;8.90;;
76296;SDS011;65104;52.994;6.552;2022-12-15T00:28:18;21.38;;;8.95;;
76296;SDS011;65104;52.994;6.552;2022-12-15T00:31:03;19.77;;;7.85;;
76296;SDS011;65104;52.994;6.552;2022-12-15T00:33:47;13.18;;;7.82;;
76296;SDS011;65104;52.994;6.552;2022-12-15T00:36:31;15.20;;;8.18;;
76296;SDS011;65104;52.994;6.552;2022-12-15T00:39:15;19.98;;;9.20;;
76296;SDS011;65104;52.994;6.552;2022-12-15T00:41:41;19.85;;;9.65;;
76296;SDS011;65104;52.994;6.552;2022-12-15T00:44:06;15.93;;;8.23;;
76296;SDS011;65104;52.994;6.552;2022-12-15T00:46:32;18.08;;;8.40;;
76296;SDS011;65104;52.994;6.552;2022-12-15T00:49:16;18.27;;;7.80;;
76296;SDS011;65104;52.994;6.552;2022-12-15T00:52:00;14.07;;;7.75;;
76296;SDS011;65104;52.994;6.552;2022-12-15T00:54:44;17.88;;;8.38;;
76296;SDS011;65104;52.994;6.552;2022-12-15T00:57:27;14.02;;;7.90;;
76296;SDS011;65104;52.994;6.552;2022-12-15T01:00:12;17.35;;;8.32;;
76296;SDS011;65104;52.994;6.552;2022-12-15T01:02:56;19.00;;;9.02;;
76296;SDS011;65104;52.994;6.552;2022-12-15T01:05:40;16.95;;;7.90;;
76296;SDS011;65104;52.994;6.552;2022-12-15T01:08:24;16.02;;;8.07;;
76296;SDS011;65104;52.994;6.552;2022-12-15T01:11:08;18.10;;;8.10;;
76296;SDS011;65104;52.994;6.552;2022-12-15T01:13:52;18.08;;;7.93;;
76296;SDS011;65104;52.994;6.552;2022-12-15T01:16:36;15.82;;;7.43;;
76296;SDS011;65104;52.994;6.552;2022-12-15T01:19:20;17.67;;;7.90;;
76296;SDS011;65104;52.994;6.552;2022-12-15T01:22:05;17.77;;;8.32;;
76296;SDS011;65104;52.994;6.552;2022-12-15T01:24:31;14.35;;;7.68;;
76296;SDS011;65104;52.994;6.552;2022-12-15T01:26:57;17.48;;;8.27;;
76296;SDS011;65104;52.994;6.552;2022-12-15T01:29:23;15.85;;;8.02;;
76296;SDS011;65104;52.994;6.552;2022-12-15T01:31:48;17.00;;;7.03;;
76296;SDS011;65104;52.994;6.552;2022-12-15T01:34:14;15.13;;;7.50;;
76296;SDS011;65104;52.994;6.552;2022-12-15T01:36:41;14.25;;;7.20;;
76296;SDS011;65104;52.994;6.552;2022-12-15T01:39:07;15.25;;;7.93;;
76296;SDS011;65104;52.994;6.552;2022-12-15T01:41:32;17.58;;;8.82;;
76296;SDS011;65104;52.994;6.552;2022-12-15T01:44:20;13.57;;;8.07;;
76296;SDS011;65104;52.994;6.552;2022-12-15T01:46:47;13.45;;;7.60;;
76296;SDS011;65104;52.994;6.552;2022-12-15T01:49:36;17.00;;;7.03;;
76296;SDS011;65104;52.994;6.552;2022-12-15T01:52:02;13.07;;;6.53;;
76296;SDS011;65104;52.994;6.552;2022-12-15T01:57:01;15.68;;;7.63;;
76296;SDS011;65104;52.994;6.552;2022-12-15T01:59:35;15.95;;;7.45;;
76296;SDS011;65104;52.994;6.552;2022-12-15T02:02:05;16.50;;;6.97;;
76296;SDS011;65104;52.994;6.552;2022-12-15T02:04:30;19.33;;;8.93;;
76296;SDS011;65104;52.994;6.552;2022-12-15T02:06:57;14.35;;;7.55;;
76296;SDS011;65104;52.994;6.552;2022-12-15T02:09:23;14.85;;;7.00;;
76296;SDS011;65104;52.994;6.552;2022-12-15T02:25:59;16.77;;;7.20;;
76296;SDS011;65104;52.994;6.552;2022-12-15T02:28:53;19.13;;;7.63;;
76296;SDS011;65104;52.994;6.552;2022-12-15T02:31:35;13.90;;;6.03;;
76296;SDS011;65104;52.994;6.552;2022-12-15T02:34:39;13.52;;;6.80;;
76296;SDS011;65104;52.994;6.552;2022-12-15T02:37:22;17.77;;;8.02;;
76296;SDS011;65104;52.994;6.552;2022-12-15T02:39:53;14.05;;;6.95;;
76296;SDS011;65104;52.994;6.552;2022-12-15T02:42:18;13.48;;;6.75;;
76296;SDS011;65104;52.994;6.552;2022-12-15T03:00:52;13.52;;;7.07;;
76296;SDS011;65104;52.994;6.552;2022-12-15T03:03:25;14.55;;;7.60;;
76296;SDS011;65104;52.994;6.552;2022-12-15T03:05:53;10.45;;;6.60;;
76296;SDS011;65104;52.994;6.552;2022-12-15T03:08:19;16.08;;;7.10;;
76296;SDS011;65104;52.994;6.552;2022-12-15T03:10:46;13.60;;;6.28;;
76296;SDS011;65104;52.994;6.552;2022-12-15T03:13:17;13.25;;;6.57;;
76296;SDS011;65104;52.994;6.552;2022-12-15T03:15:42;12.20;;;6.28;;
76296;SDS011;65104;52.994;6.552;2022-12-15T03:18:08;13.63;;;6.15;;
76296;SDS011;65104;52.994;6.552;2022-12-15T03:20:34;9.55;;;5.60;;
76296;SDS011;65104;52.994;6.552;2022-12-15T03:23:00;11.57;;;6.22;;
76296;SDS011;65104;52.994;6.552;2022-12-15T03:25:25;15.15;;;6.38;;
76296;SDS011;65104;52.994;6.552;2022-12-15T03:27:51;13.23;;;7.28;;
76296;SDS011;65104;52.994;6.552;2022-12-15T03:30:17;13.45;;;6.80;;
76296;SDS011;65104;52.994;6.552;2022-12-15T03:32:42;12.65;;;6.82;;
76296;SDS011;65104;52.994;6.552;2022-12-15T03:35:08;12.90;;;6.63;;
76296;SDS011;65104;52.994;6.552;2022-12-15T03:37:33;11.00;;;6.53;;
76296;SDS011;65104;52.994;6.552;2022-12-15T03:39:59;12.65;;;6.32;;
76296;SDS011;65104;52.994;6.552;2022-12-15T03:42:24;16.80;;;7.47;;
76296;SDS011;65104;52.994;6.552;2022-12-15T03:45:20;12.18;;;6.57;;
76296;SDS011;65104;52.994;6.552;2022-12-15T03:47:48;13.63;;;6.20;;
76296;SDS011;65104;52.994;6.552;2022-12-15T03:50:16;11.10;;;6.28;;
76296;SDS011;65104;52.994;6.552;2022-12-15T03:52:43;14.05;;;6.88;;
76296;SDS011;65104;52.994;6.552;2022-12-15T03:55:09;14.80;;;7.50;;
76296;SDS011;65104;52.994;6.552;2022-12-15T03:57:35;14.10;;;7.03;;
76296;SDS011;65104;52.994;6.552;2022-12-15T04:00:00;11.65;;;6.07;;
76296;SDS011;65104;52.994;6.552;2022-12-15T04:02:26;12.95;;;6.47;;
76296;SDS011;65104;52.994;6.552;2022-12-15T04:04:51;14.90;;;7.47;;
76296;SDS011;65104;52.994;6.552;2022-12-15T04:07:17;15.02;;;6.93;;
76296;SDS011;65104;52.994;6.552;2022-12-15T04:09:42;12.40;;;6.00;;
76296;SDS011;65104;52.994;6.552;2022-12-15T04:12:09;12.00;;;6.32;;
76296;SDS011;65104;52.994;6.552;2022-12-15T04:14:35;15.13;;;7.35;;
76296;SDS011;65104;52.994;6.552;2022-12-15T04:17:06;11.75;;;5.30;;
76296;SDS011;65104;52.994;6.552;2022-12-15T04:22:18;9.75;;;5.45;;
76296;SDS011;65104;52.994;6.552;2022-12-15T04:24:43;10.90;;;6.50;;
76296;SDS011;65104;52.994;6.552;2022-12-15T04:27:27;13.88;;;5.97;;
76296;SDS011;65104;52.994;6.552;2022-12-15T04:30:11;13.90;;;7.07;;
76296;SDS011;65104;52.994;6.552;2022-12-15T04:32:55;13.52;;;6.95;;
76296;SDS011;65104;52.994;6.552;2022-12-15T04:35:39;14.55;;;6.75;;
76296;SDS011;65104;52.994;6.552;2022-12-15T04:38:23;10.65;;;6.40;;
76296;SDS011;65104;52.994;6.552;2022-12-15T04:41:07;12.63;;;6.35;;
76296;SDS011;65104;52.994;6.552;2022-12-15T04:43:51;11.13;;;6.32;;
76296;SDS011;65104;52.994;6.552;2022-12-15T04:46:35;11.43;;;6.50;;
76296;SDS011;65104;52.994;6.552;2022-12-15T04:49:19;16.65;;;7.55;;
76296;SDS011;65104;52.994;6.552;2022-12-15T04:52:03;12.80;;;6.60;;
76296;SDS011;65104;52.994;6.552;2022-12-15T04:54:47;14.73;;;7.57;;
76296;SDS011;65104;52.994;6.552;2022-12-15T04:57:30;13.40;;;6.57;;
76296;SDS011;65104;52.994;6.552;2022-12-15T05:00:14;11.48;;;6.10;;
76296;SDS011;65104;52.994;6.552;2022-12-15T05:03:05;11.20;;;5.80;;
76296;SDS011;65104;52.994;6.552;2022-12-15T05:05:49;11.77;;;5.45;;
76296;SDS011;65104;52.994;6.552;2022-12-15T05:08:33;10.38;;;5.85;;
76296;SDS011;65104;52.994;6.552;2022-12-15T05:11:17;14.27;;;6.60;;
76296;SDS011;65104;52.994;6.552;2022-12-15T05:14:01;11.82;;;6.38;;
76296;SDS011;65104;52.994;6.552;2022-12-15T05:16:45;14.85;;;6.30;;
76296;SDS011;65104;52.994;6.552;2022-12-15T05:19:29;11.18;;;6.90;;
76296;SDS011;65104;52.994;6.552;2022-12-15T05:22:13;11.82;;;6.78;;
76296;SDS011;65104;52.994;6.552;2022-12-15T05:24:56;11.45;;;6.18;;
76296;SDS011;65104;52.994;6.552;2022-12-15T05:27:40;12.25;;;5.85;;
76296;SDS011;65104;52.994;6.552;2022-12-15T05:30:24;11.98;;;6.95;;
76296;SDS011;65104;52.994;6.552;2022-12-15T05:33:08;10.85;;;5.85;;
76296;SDS011;65104;52.994;6.552;2022-12-15T05:35:34;12.00;;;6.93;;
76296;SDS011;65104;52.994;6.552;2022-12-15T05:37:59;13.27;;;6.97;;
76296;SDS011;65104;52.994;6.552;2022-12-15T05:40:25;10.95;;;6.65;;
76296;SDS011;65104;52.994;6.552;2022-12-15T05:42:50;11.95;;;7.18;;
76296;SDS011;65104;52.994;6.552;2022-12-15T05:45:15;13.88;;;5.85;;
76296;SDS011;65104;52.994;6.552;2022-12-15T05:47:41;10.02;;;5.88;;
76296;SDS011;65104;52.994;6.552;2022-12-15T05:50:06;11.52;;;6.35;;
76296;SDS011;65104;52.994;6.552;2022-12-15T05:52:32;14.07;;;6.72;;
76296;SDS011;65104;52.994;6.552;2022-12-15T05:54:57;12.98;;;6.65;;
76296;SDS011;65104;52.994;6.552;2022-12-15T05:57:23;13.00;;;6.32;;
76296;SDS011;65104;52.994;6.552;2022-12-15T05:59:48;11.10;;;6.38;;
76296;SDS011;65104;52.994;6.552;2022-12-15T06:02:13;14.38;;;6.88;;
76296;SDS011;65104;52.994;6.552;2022-12-15T06:04:39;13.55;;;5.90;;
76296;SDS011;65104;52.994;6.552;2022-12-15T06:07:04;13.05;;;6.82;;
76296;SDS011;65104;52.994;6.552;2022-12-15T06:09:30;10.05;;;5.80;;
76296;SDS011;65104;52.994;6.552;2022-12-15T06:11:55;10.77;;;5.32;;
76296;SDS011;65104;52.994;6.552;2022-12-15T06:14:21;12.18;;;5.55;;
76296;SDS011;65104;52.994;6.552;2022-12-15T06:16:46;10.13;;;5.38;;
76296;SDS011;65104;52.994;6.552;2022-12-15T06:19:12;12.68;;;5.68;;
76296;SDS011;65104;52.994;6.552;2022-12-15T06:21:37;9.02;;;5.68;;
76296;SDS011;65104;52.994;6.552;2022-12-15T06:24:04;10.75;;;5.57;;
76296;SDS011;65104;52.994;6.552;2022-12-15T06:26:34;9.63;;;5.55;;
76296;SDS011;65104;52.994;6.552;2022-12-15T06:29:02;10.85;;;5.93;;
76296;SDS011;65104;52.994;6.552;2022-12-15T06:31:29;12.32;;;6.13;;
76296;SDS011;65104;52.994;6.552;2022-12-15T06:33:56;7.65;;;5.15;;
76296;SDS011;65104;52.994;6.552;2022-12-15T06:36:22;8.65;;;5.45;;
76296;SDS011;65104;52.994;6.552;2022-12-15T06:38:52;10.85;;;5.88;;
76296;SDS011;65104;52.994;6.552;2022-12-15T06:41:19;9.80;;;5.72;;
76296;SDS011;65104;52.994;6.552;2022-12-15T06:43:49;10.90;;;5.65;;
76296;SDS011;65104;52.994;6.552;2022-12-15T06:46:17;12.65;;;5.68;;
76296;SDS011;65104;52.994;6.552;2022-12-15T06:48:42;14.30;;;6.72;;
76296;SDS011;65104;52.994;6.552;2022-12-15T06:51:10;8.52;;;5.30;;
76296;SDS011;65104;52.994;6.552;2022-12-15T06:53:37;11.20;;;6.13;;
76296;SDS011;65104;52.994;6.552;2022-12-15T06:56:06;13.50;;;6.72;;
76296;SDS011;65104;52.994;6.552;2022-12-15T06:58:32;11.02;;;5.78;;
76296;SDS011;65104;52.994;6.552;2022-12-15T07:00:58;9.25;;;4.97;;
76296;SDS011;65104;52.994;6.552;2022-12-15T07:03:31;12.30;;;5.68;;
76296;SDS011;65104;52.994;6.552;2022-12-15T07:06:01;15.07;;;5.82;;
76296;SDS011;65104;52.994;6.552;2022-12-15T07:08:29;10.57;;;5.80;;
76296;SDS011;65104;52.994;6.552;2022-12-15T07:10:55;16.75;;;6.90;;
76296;SDS011;65104;52.994;6.552;2022-12-15T07:13:21;12.35;;;6.70;;
76296;SDS011;65104;52.994;6.552;2022-12-15T07:15:46;11.07;;;6.50;;
76296;SDS011;65104;52.994;6.552;2022-12-15T07:18:14;12.18;;;6.07;;
76296;SDS011;65104;52.994;6.552;2022-12-15T07:20:40;10.50;;;4.97;;
76296;SDS011;65104;52.994;6.552;2022-12-15T07:23:06;9.80;;;4.93;;
76296;SDS011;65104;52.994;6.552;2022-12-15T07:25:37;8.57;;;5.47;;
76296;SDS011;65104;52.994;6.552;2022-12-15T07:28:04;9.52;;;5.45;;
76296;SDS011;65104;52.994;6.552;2022-12-15T07:30:30;11.73;;;5.78;;
76296;SDS011;65104;52.994;6.552;2022-12-15T07:32:56;10.75;;;5.68;;
76296;SDS011;65104;52.994;6.552;2022-12-15T07:35:22;10.60;;;4.95;;
76296;SDS011;65104;52.994;6.552;2022-12-15T07:37:47;10.85;;;5.43;;
76296;SDS011;65104;52.994;6.552;2022-12-15T07:40:13;7.95;;;5.35;;
76296;SDS011;65104;52.994;6.552;2022-12-15T07:42:39;11.38;;;6.07;;
76296;SDS011;65104;52.994;6.552;2022-12-15T07:45:04;10.60;;;5.10;;
76296;SDS011;65104;52.994;6.552;2022-12-15T07:47:31;15.95;;;6.68;;
76296;SDS011;65104;52.994;6.552;2022-12-15T07:49:56;9.93;;;5.45;;
76296;SDS011;65104;52.994;6.552;2022-12-15T07:52:22;11.77;;;5.75;;
76296;SDS011;65104;52.994;6.552;2022-12-15T07:54:48;12.60;;;5.53;;
76296;SDS011;65104;52.994;6.552;2022-12-15T07:57:13;13.40;;;6.07;;
76296;SDS011;65104;52.994;6.552;2022-12-15T07:59:40;14.23;;;6.72;;
76296;SDS011;65104;52.994;6.552;2022-12-15T08:02:07;9.50;;;6.10;;
76296;SDS011;65104;52.994;6.552;2022-12-15T08:04:34;11.30;;;5.78;;
76296;SDS011;65104;52.994;6.552;2022-12-15T08:06:59;13.35;;;5.35;;
76296;SDS011;65104;52.994;6.552;2022-12-15T08:09:25;10.27;;;5.35;;
76296;SDS011;65104;52.994;6.552;2022-12-15T08:11:50;9.90;;;5.22;;
76296;SDS011;65104;52.994;6.552;2022-12-15T08:14:16;9.20;;;5.93;;
76296;SDS011;65104;52.994;6.552;2022-12-15T08:16:41;12.05;;;5.57;;
76296;SDS011;65104;52.994;6.552;2022-12-15T08:19:10;9.32;;;5.60;;
76296;SDS011;65104;52.994;6.552;2022-12-15T08:21:38;11.98;;;6.43;;
76296;SDS011;65104;52.994;6.552;2022-12-15T08:24:05;8.40;;;5.20;;
76296;SDS011;65104;52.994;6.552;2022-12-15T08:26:32;15.27;;;7.47;;
76296;SDS011;65104;52.994;6.552;2022-12-15T08:28:59;10.48;;;6.05;;
76296;SDS011;65104;52.994;6.552;2022-12-15T08:31:27;11.80;;;6.38;;
76296;SDS011;65104;52.994;6.552;2022-12-15T08:33:55;12.18;;;6.10;;
76296;SDS011;65104;52.994;6.552;2022-12-15T08:36:21;10.65;;;5.95;;
76296;SDS011;65104;52.994;6.552;2022-12-15T08:38:47;11.60;;;6.35;;
76296;SDS011;65104;52.994;6.552;2022-12-15T08:41:15;14.57;;;6.82;;
76296;SDS011;65104;52.994;6.552;2022-12-15T08:43:42;11.63;;;6.47;;
76296;SDS011;65104;52.994;6.552;2022-12-15T08:46:09;13.02;;;6.60;;
76296;SDS011;65104;52.994;6.552;2022-12-15T08:48:34;16.52;;;7.63;;
76296;SDS011;65104;52.994;6.552;2022-12-15T08:51:00;13.18;;;6.10;;
76296;SDS011;65104;52.994;6.552;2022-12-15T08:53:26;13.20;;;6.38;;
76296;SDS011;65104;52.994;6.552;2022-12-15T08:55:51;16.63;;;6.00;;
76296;SDS011;65104;52.994;6.552;2022-12-15T08:58:17;12.77;;;6.53;;
76296;SDS011;65104;52.994;6.552;2022-12-15T09:00:43;12.45;;;6.53;;
76296;SDS011;65104;52.994;6.552;2022-12-15T09:03:08;13.60;;;6.75;;
76296;SDS011;65104;52.994;6.552;2022-12-15T09:05:34;13.55;;;6.32;;
76296;SDS011;65104;52.994;6.552;2022-12-15T09:08:01;9.68;;;6.10;;
76296;SDS011;65104;52.994;6.552;2022-12-15T09:10:26;11.35;;;6.25;;
76296;SDS011;65104;52.994;6.552;2022-12-15T09:12:52;11.10;;;6.07;;
76296;SDS011;65104;52.994;6.552;2022-12-15T09:15:18;11.68;;;6.28;;
76296;SDS011;65104;52.994;6.552;2022-12-15T09:17:44;9.52;;;5.47;;
76296;SDS011;65104;52.994;6.552;2022-12-15T09:20:11;15.70;;;6.93;;
76296;SDS011;65104;52.994;6.552;2022-12-15T09:22:36;13.60;;;6.82;;
76296;SDS011;65104;52.994;6.552;2022-12-15T09:25:02;12.25;;;7.03;;
76296;SDS011;65104;52.994;6.552;2022-12-15T09:27:28;13.30;;;7.15;;
76296;SDS011;65104;52.994;6.552;2022-12-15T09:29:54;13.15;;;7.07;;
76296;SDS011;65104;52.994;6.552;2022-12-15T09:32:21;12.82;;;7.05;;
76296;SDS011;65104;52.994;6.552;2022-12-15T09:34:46;11.57;;;6.65;;
76296;SDS011;65104;52.994;6.552;2022-12-15T09:37:12;10.13;;;6.50;;
76296;SDS011;65104;52.994;6.552;2022-12-15T09:39:37;11.35;;;6.80;;
76296;SDS011;65104;52.994;6.552;2022-12-15T09:42:03;13.35;;;7.97;;
76296;SDS011;65104;52.994;6.552;2022-12-15T09:44:29;13.65;;;7.07;;
76296;SDS011;65104;52.994;6.552;2022-12-15T09:47:15;11.35;;;6.30;;
76296;SDS011;65104;52.994;6.552;2022-12-15T09:52:28;12.75;;;6.93;;
76296;SDS011;65104;52.994;6.552;2022-12-15T09:54:57;11.73;;;6.60;;
76296;SDS011;65104;52.994;6.552;2022-12-15T10:06:01;11.35;;;6.80;;
76296;SDS011;65104;52.994;6.552;2022-12-15T10:08:33;12.10;;;5.80;;
76296;SDS011;65104;52.994;6.552;2022-12-15T10:11:02;11.57;;;6.38;;
76296;SDS011;65104;52.994;6.552;2022-12-15T10:13:39;8.02;;;5.22;;
76296;SDS011;65104;52.994;6.552;2022-12-15T10:16:17;8.88;;;4.82;;
76296;SDS011;65104;52.994;6.552;2022-12-15T10:19:02;9.05;;;4.65;;
76296;SDS011;65104;52.994;6.552;2022-12-15T10:21:33;11.98;;;6.13;;
76296;SDS011;65104;52.994;6.552;2022-12-15T10:24:20;8.98;;;5.15;;
76296;SDS011;65104;52.994;6.552;2022-12-15T10:26:47;8.63;;;5.05;;
76296;SDS011;65104;52.994;6.552;2022-12-15T10:29:35;8.68;;;5.53;;
76296;SDS011;65104;52.994;6.552;2022-12-15T10:35:14;8.25;;;5.30;;
76296;SDS011;65104;52.994;6.552;2022-12-15T10:37:42;10.27;;;5.57;;
76296;SDS011;65104;52.994;6.552;2022-12-15T10:40:08;9.27;;;5.43;;
76296;SDS011;65104;52.994;6.552;2022-12-15T10:42:45;13.23;;;5.80;;
76296;SDS011;65104;52.994;6.552;2022-12-15T10:47:59;13.07;;;5.72;;
76296;SDS011;65104;52.994;6.552;2022-12-15T10:50:30;10.23;;;4.90;;
76296;SDS011;65104;52.994;6.552;2022-12-15T10:52:57;10.20;;;5.00;;
76296;SDS011;65104;52.994;6.552;2022-12-15T10:55:35;11.82;;;5.47;;
76296;SDS011;65104;52.994;6.552;2022-12-15T10:58:15;12.77;;;5.88;;
76296;SDS011;65104;52.994;6.552;2022-12-15T11:00:43;9.85;;;5.63;;
76296;SDS011;65104;52.994;6.552;2022-12-15T11:03:20;8.82;;;5.03;;
76296;SDS011;65104;52.994;6.552;2022-12-15T11:05:54;10.65;;;6.03;;
76296;SDS011;65104;52.994;6.552;2022-12-15T11:08:20;8.18;;;5.20;;
76296;SDS011;65104;52.994;6.552;2022-12-15T11:10:51;9.35;;;5.45;;
76296;SDS011;65104;52.994;6.552;2022-12-15T11:13:36;7.85;;;5.03;;
76296;SDS011;65104;52.994;6.552;2022-12-15T11:16:15;6.72;;;4.57;;
76296;SDS011;65104;52.994;6.552;2022-12-15T11:21:23;9.40;;;5.18;;
76296;SDS011;65104;52.994;6.552;2022-12-15T11:26:32;7.70;;;5.28;;
76296;SDS011;65104;52.994;6.552;2022-12-15T11:29:00;12.48;;;5.97;;
76296;SDS011;65104;52.994;6.552;2022-12-15T11:31:36;7.90;;;4.75;;
76296;SDS011;65104;52.994;6.552;2022-12-15T11:34:09;7.00;;;4.18;;
76296;SDS011;65104;52.994;6.552;2022-12-15T11:42:42;9.18;;;4.53;;
76296;SDS011;65104;52.994;6.552;2022-12-15T11:45:23;8.60;;;5.00;;
76296;SDS011;65104;52.994;6.552;2022-12-15T11:58:44;7.10;;;4.38;;
76296;SDS011;65104;52.994;6.552;2022-12-15T12:09:37;7.63;;;4.87;;
76296;SDS011;65104;52.994;6.552;2022-12-15T12:12:26;12.07;;;5.95;;
76296;SDS011;65104;52.994;6.552;2022-12-15T12:15:05;8.15;;;4.45;;
76296;SDS011;65104;52.994;6.552;2022-12-15T12:20:39;6.70;;;3.88;;
76296;SDS011;65104;52.994;6.552;2022-12-15T12:23:18;7.38;;;4.78;;
76296;SDS011;65104;52.994;6.552;2022-12-15T12:33:44;5.18;;;3.45;;
76296;SDS011;65104;52.994;6.552;2022-12-15T12:36:15;6.72;;;4.25;;
76296;SDS011;65104;52.994;6.552;2022-12-15T12:38:43;7.57;;;4.40;;
76296;SDS011;65104;52.994;6.552;2022-12-15T12:43:56;7.45;;;4.03;;
76296;SDS011;65104;52.994;6.552;2022-12-15T12:46:28;7.38;;;4.10;;
76296;SDS011;65104;52.994;6.552;2022-12-15T12:49:10;6.47;;;4.50;;
76296;SDS011;65104;52.994;6.552;2022-12-15T12:51:41;7.30;;;4.63;;
76296;SDS011;65104;52.994;6.552;2022-12-15T12:57:00;7.60;;;3.75;;
76296;SDS011;65104;52.994;6.552;2022-12-15T13:01:57;8.48;;;4.90;;
76296;SDS011;65104;52.994;6.552;2022-12-15T13:07:54;7.70;;;4.72;;
76296;SDS011;65104;52.994;6.552;2022-12-15T13:10:41;7.60;;;4.65;;
76296;SDS011;65104;52.994;6.552;2022-12-15T13:29:34;13.65;;;6.45;;
76296;SDS011;65104;52.994;6.552;2022-12-15T13:32:01;17.17;;;7.70;;
76296;SDS011;65104;52.994;6.552;2022-12-15T13:34:28;12.82;;;6.18;;
76296;SDS011;65104;52.994;6.552;2022-12-15T13:37:00;19.65;;;8.25;;
76296;SDS011;65104;52.994;6.552;2022-12-15T13:44:19;9.52;;;6.05;;
76296;SDS011;65104;52.994;6.552;2022-12-15T13:46:53;8.85;;;5.53;;
76296;SDS011;65104;52.994;6.552;2022-12-15T13:49:32;9.93;;;5.40;;
76296;SDS011;65104;52.994;6.552;2022-12-15T13:52:02;9.02;;;5.40;;
76296;SDS011;65104;52.994;6.552;2022-12-15T13:54:38;10.98;;;5.72;;
76296;SDS011;65104;52.994;6.552;2022-12-15T13:57:13;10.23;;;4.95;;
76296;SDS011;65104;52.994;6.552;2022-12-15T13:59:48;9.60;;;5.32;;
76296;SDS011;65104;52.994;6.552;2022-12-15T14:02:29;9.88;;;4.82;;
76296;SDS011;65104;52.994;6.552;2022-12-15T14:12:54;5.57;;;4.45;;
76296;SDS011;65104;52.994;6.552;2022-12-15T14:15:28;13.02;;;4.97;;
76296;SDS011;65104;52.994;6.552;2022-12-15T14:17:55;10.32;;;5.47;;
76296;SDS011;65104;52.994;6.552;2022-12-15T14:20:30;7.07;;;5.22;;
76296;SDS011;65104;52.994;6.552;2022-12-15T14:23:05;10.15;;;5.93;;
76296;SDS011;65104;52.994;6.552;2022-12-15T14:25:50;12.15;;;6.15;;
76296;SDS011;65104;52.994;6.552;2022-12-15T14:28:38;9.73;;;5.45;;
76296;SDS011;65104;52.994;6.552;2022-12-15T14:33:42;10.10;;;5.15;;
76296;SDS011;65104;52.994;6.552;2022-12-15T14:38:44;10.73;;;5.40;;
76296;SDS011;65104;52.994;6.552;2022-12-15T14:41:19;8.20;;;5.38;;
76296;SDS011;65104;52.994;6.552;2022-12-15T14:43:48;11.95;;;5.85;;
76296;SDS011;65104;52.994;6.552;2022-12-15T14:46:18;13.93;;;5.65;;
76296;SDS011;65104;52.994;6.552;2022-12-15T14:48:50;10.77;;;6.53;;
76296;SDS011;65104;52.994;6.552;2022-12-15T14:51:19;12.18;;;6.53;;
76296;SDS011;65104;52.994;6.552;2022-12-15T14:53:49;10.98;;;5.82;;
76296;SDS011;65104;52.994;6.552;2022-12-15T14:58:45;11.55;;;6.25;;
76296;SDS011;65104;52.994;6.552;2022-12-15T15:04:00;10.75;;;6.28;;
76296;SDS011;65104;52.994;6.552;2022-12-15T15:06:36;11.77;;;6.28;;
76296;SDS011;65104;52.994;6.552;2022-12-15T15:09:10;13.85;;;6.47;;
76296;SDS011;65104;52.994;6.552;2022-12-15T15:11:43;14.20;;;6.47;;
76296;SDS011;65104;52.994;6.552;2022-12-15T15:14:11;11.82;;;6.70;;
76296;SDS011;65104;52.994;6.552;2022-12-15T15:16:39;11.73;;;7.72;;
76296;SDS011;65104;52.994;6.552;2022-12-15T15:19:05;11.90;;;6.68;;
76296;SDS011;65104;52.994;6.552;2022-12-15T15:21:33;12.48;;;6.88;;
76296;SDS011;65104;52.994;6.552;2022-12-15T15:26:34;14.27;;;6.97;;
76296;SDS011;65104;52.994;6.552;2022-12-15T15:29:00;11.93;;;7.38;;
76296;SDS011;65104;52.994;6.552;2022-12-15T15:31:28;14.90;;;7.60;;
76296;SDS011;65104;52.994;6.552;2022-12-15T15:34:00;14.50;;;7.43;;
76296;SDS011;65104;52.994;6.552;2022-12-15T15:36:29;14.82;;;8.98;;
76296;SDS011;65104;52.994;6.552;2022-12-15T15:38:57;14.02;;;8.02;;
76296;SDS011;65104;52.994;6.552;2022-12-15T15:43:53;15.77;;;8.52;;
76296;SDS011;65104;52.994;6.552;2022-12-15T15:46:20;12.85;;;8.05;;
76296;SDS011;65104;52.994;6.552;2022-12-15T15:48:52;17.35;;;8.80;;
76296;SDS011;65104;52.994;6.552;2022-12-15T15:51:19;11.55;;;7.68;;
76296;SDS011;65104;52.994;6.552;2022-12-15T15:53:47;11.35;;;9.07;;
76296;SDS011;65104;52.994;6.552;2022-12-15T15:56:13;16.85;;;9.32;;
76296;SDS011;65104;52.994;6.552;2022-12-15T15:58:42;16.38;;;9.57;;
76296;SDS011;65104;52.994;6.552;2022-12-15T16:01:08;15.93;;;9.48;;
76296;SDS011;65104;52.994;6.552;2022-12-15T16:03:34;18.48;;;10.05;;
76296;SDS011;65104;52.994;6.552;2022-12-15T16:06:00;17.75;;;9.90;;
76296;SDS011;65104;52.994;6.552;2022-12-15T16:08:30;17.27;;;8.45;;
76296;SDS011;65104;52.994;6.552;2022-12-15T16:10:59;14.48;;;8.35;;
76296;SDS011;65104;52.994;6.552;2022-12-15T16:16:40;15.43;;;9.30;;
76296;SDS011;65104;52.994;6.552;2022-12-15T16:19:06;17.02;;;9.63;;
76296;SDS011;65104;52.994;6.552;2022-12-15T16:21:32;15.60;;;9.32;;
76296;SDS011;65104;52.994;6.552;2022-12-15T16:23:59;18.58;;;9.82;;
76296;SDS011;65104;52.994;6.552;2022-12-15T16:26:32;16.13;;;9.90;;
76296;SDS011;65104;52.994;6.552;2022-12-15T16:29:01;15.75;;;9.68;;
76296;SDS011;65104;52.994;6.552;2022-12-15T16:31:28;18.33;;;10.63;;
76296;SDS011;65104;52.994;6.552;2022-12-15T16:33:55;19.83;;;10.23;;
76296;SDS011;65104;52.994;6.552;2022-12-15T16:36:21;17.67;;;11.65;;
76296;SDS011;65104;52.994;6.552;2022-12-15T16:38:46;18.70;;;11.45;;
76296;SDS011;65104;52.994;6.552;2022-12-15T16:41:14;23.15;;;12.75;;
76296;SDS011;65104;52.994;6.552;2022-12-15T16:43:41;20.92;;;11.40;;
76296;SDS011;65104;52.994;6.552;2022-12-15T16:46:10;18.60;;;11.48;;
76296;SDS011;65104;52.994;6.552;2022-12-15T16:48:36;17.75;;;11.88;;
76296;SDS011;65104;52.994;6.552;2022-12-15T16:51:05;18.77;;;10.73;;
76296;SDS011;65104;52.994;6.552;2022-12-15T16:53:32;22.35;;;11.65;;
76296;SDS011;65104;52.994;6.552;2022-12-15T16:56:02;20.35;;;12.20;;
76296;SDS011;65104;52.994;6.552;2022-12-15T16:58:29;18.20;;;10.88;;
76296;SDS011;65104;52.994;6.552;2022-12-15T17:00:56;24.48;;;12.60;;
76296;SDS011;65104;52.994;6.552;2022-12-15T17:03:22;22.13;;;12.10;;
76296;SDS011;65104;52.994;6.552;2022-12-15T17:08:18;21.92;;;10.77;;
76296;SDS011;65104;52.994;6.552;2022-12-15T17:10:49;20.83;;;12.85;;
76296;SDS011;65104;52.994;6.552;2022-12-15T17:13:18;19.15;;;12.15;;
76296;SDS011;65104;52.994;6.552;2022-12-15T17:15:44;21.58;;;12.80;;
76296;SDS011;65104;52.994;6.552;2022-12-15T17:18:11;23.75;;;13.07;;
76296;SDS011;65104;52.994;6.552;2022-12-15T17:20:37;24.15;;;14.13;;
76296;SDS011;65104;52.994;6.552;2022-12-15T17:23:04;27.42;;;15.98;;
76296;SDS011;65104;52.994;6.552;2022-12-15T17:25:36;20.08;;;12.00;;
76296;SDS011;65104;52.994;6.552;2022-12-15T17:28:05;28.00;;;16.17;;
76296;SDS011;65104;52.994;6.552;2022-12-15T17:30:36;27.60;;;15.15;;
76296;SDS011;65104;52.994;6.552;2022-12-15T17:33:01;25.52;;;14.55;;
76296;SDS011;65104;52.994;6.552;2022-12-15T17:35:34;26.05;;;14.60;;